createdAt,value
2022-08-31T00:02:02.380Z,15.67
2022-08-31T00:05:17.209Z,15.58
2022-08-31T00:08:29.363Z,15.70
2022-08-31T00:11:48.921Z,15.65
2022-08-31T00:15:01.175Z,15.68
2022-08-31T00:18:14.429Z,15.30
2022-08-31T00:21:27.930Z,15.64
2022-08-31T00:24:50.626Z,15.63
2022-08-31T00:28:03.749Z,15.68
2022-08-31T00:34:56.698Z,15.74
2022-08-31T00:38:10.454Z,15.36
2022-08-31T00:41:25.606Z,15.43
2022-08-31T00:44:37.761Z,15.55
2022-08-31T00:47:50.090Z,15.60
2022-08-31T00:55:01.685Z,15.61
2022-08-31T00:58:16.875Z,15.63
2022-08-31T01:01:36.804Z,15.68
2022-08-31T01:04:51.719Z,15.68
2022-08-31T01:08:15.060Z,15.69
2022-08-31T01:11:28.336Z,15.67
2022-08-31T01:14:41.389Z,15.55
2022-08-31T01:18:08.849Z,15.34
2022-08-31T01:21:29.659Z,15.28
2022-08-31T01:24:51.741Z,15.21
2022-08-31T01:28:07.885Z,15.38
2022-08-31T01:31:29.917Z,15.35
2022-08-31T01:34:42.303Z,15.24
2022-08-31T01:37:54.947Z,15.04
2022-08-31T01:41:09.848Z,15.13
2022-08-31T01:44:28.075Z,15.08
2022-08-31T01:47:40.326Z,15.17
2022-08-31T01:54:40.609Z,15.14
2022-08-31T01:57:53.385Z,15.21
2022-08-31T02:01:32.760Z,15.24
2022-08-31T02:04:25.632Z,15.23
2022-08-31T02:07:39.458Z,15.20
2022-08-31T02:10:52.849Z,15.10
2022-08-31T02:14:04.907Z,14.91
2022-08-31T02:17:17.030Z,14.77
2022-08-31T02:20:29.639Z,14.85
2022-08-31T02:23:41.778Z,14.86
2022-08-31T02:26:54.045Z,14.88
2022-08-31T02:30:06.314Z,14.95
2022-08-31T02:33:29.352Z,14.93
2022-08-31T02:40:24.820Z,14.90
2022-08-31T02:43:38.630Z,14.87
2022-08-31T02:46:50.672Z,14.85
2022-08-31T02:50:27.056Z,14.89
2022-08-31T02:53:48.120Z,14.85
2022-08-31T02:57:00.603Z,14.84
2022-08-31T03:00:16.087Z,14.79
2022-08-31T03:03:30.785Z,14.73
2022-08-31T03:06:50.273Z,14.64
2022-08-31T03:10:03.408Z,14.59
2022-08-31T03:13:15.399Z,14.52
2022-08-31T03:16:31.220Z,14.50
2022-08-31T03:19:43.283Z,14.50
2022-08-31T03:22:57.202Z,14.53
2022-08-31T03:26:19.465Z,14.52
2022-08-31T03:29:32.449Z,14.42
2022-08-31T03:32:48.234Z,14.38
2022-08-31T03:36:02.849Z,14.36
2022-08-31T03:39:18.179Z,14.32
2022-08-31T03:42:33.025Z,14.24
2022-08-31T03:45:46.263Z,14.25
2022-08-31T03:48:58.915Z,14.20
2022-08-31T03:52:12.541Z,14.13
2022-08-31T03:55:28.201Z,14.08
2022-08-31T03:58:41.061Z,13.98
2022-08-31T04:01:53.418Z,13.57
2022-08-31T04:05:36.123Z,13.88
2022-08-31T04:08:52.505Z,14.03
2022-08-31T04:15:29.314Z,14.02
2022-08-31T04:19:00.834Z,14.10
2022-08-31T04:22:13.942Z,14.08
2022-08-31T04:25:27.858Z,14.09
2022-08-31T04:28:50.697Z,14.20
2022-08-31T04:32:02.709Z,14.26
2022-08-31T04:35:15.957Z,14.38
2022-08-31T04:42:11.432Z,14.57
2022-08-31T04:45:24.656Z,14.68
2022-08-31T04:48:38.052Z,14.72
2022-08-31T04:51:50.143Z,14.66
2022-08-31T04:55:03.221Z,14.74
2022-08-31T04:58:17.671Z,14.95
2022-08-31T05:01:47.276Z,15.03
2022-08-31T05:05:18.562Z,15.09
2022-08-31T05:08:30.781Z,15.23
2022-08-31T05:11:46.544Z,15.48
2022-08-31T05:15:00.695Z,15.58
2022-08-31T05:18:13.523Z,15.68
2022-08-31T05:21:46.657Z,15.84
2022-08-31T05:24:58.866Z,16.06
2022-08-31T05:28:12.333Z,16.17
2022-08-31T05:35:05.074Z,16.31
2022-08-31T05:38:18.650Z,16.51
2022-08-31T05:41:31.178Z,16.62
2022-08-31T05:48:30.178Z,16.95
2022-08-31T05:51:40.149Z,17.06
2022-08-31T05:54:53.243Z,17.22
2022-08-31T05:58:05.973Z,17.58
2022-08-31T06:01:23.977Z,17.78
2022-08-31T06:07:44.294Z,18.28
2022-08-31T06:10:59.373Z,18.41
2022-08-31T06:14:13.716Z,18.63
2022-08-31T06:17:34.837Z,19.08
2022-08-31T06:56:20.871Z,21.18
2022-08-31T06:59:50.647Z,20.95
2022-08-31T07:03:08.100Z,20.49
2022-08-31T07:06:23.489Z,20.24
2022-08-31T07:09:35.231Z,20.62
2022-08-31T07:12:48.253Z,20.95
2022-08-31T07:16:15.373Z,21.23
2022-08-31T07:19:31.363Z,20.89
2022-08-31T07:22:43.515Z,19.93
2022-08-31T07:25:57.465Z,19.86
2022-08-31T07:29:10.700Z,19.51
2022-08-31T07:32:23.496Z,19.37
2022-08-31T07:35:36.336Z,19.30
2022-08-31T07:39:20.089Z,20.04
2022-08-31T07:42:36.790Z,20.78
2022-08-31T07:45:49.833Z,20.81
2022-08-31T07:49:05.412Z,21.05
2022-08-31T07:52:27.327Z,20.99
2022-08-31T07:56:01.052Z,21.31
2022-08-31T07:59:31.170Z,20.89
2022-08-31T08:02:46.490Z,21.08
2022-08-31T08:21:32.236Z,21.84
2022-08-31T08:24:46.871Z,21.56
2022-08-31T08:28:38.716Z,21.27
2022-08-31T08:31:34.704Z,21.15
2022-08-31T08:38:49.169Z,20.88
2022-08-31T08:42:02.675Z,20.62
2022-08-31T08:52:46.940Z,20.53
2022-08-31T08:56:17.269Z,20.53
2022-08-31T08:59:19.033Z,20.61
2022-08-31T09:02:38.541Z,20.73
2022-08-31T09:06:09.588Z,20.90
2022-08-31T09:09:36.442Z,20.90
2022-08-31T09:12:58.315Z,20.91
2022-08-31T09:16:22.534Z,20.84
2022-08-31T09:19:38.166Z,20.90
2022-08-31T09:22:55.856Z,21.06
2022-08-31T09:26:10.153Z,21.44
2022-08-31T09:29:32.600Z,21.99
2022-08-31T09:32:45.171Z,22.01
2022-08-31T09:36:00.618Z,21.98
2022-08-31T09:39:37.502Z,21.87
2022-08-31T09:42:53.424Z,22.16
2022-08-31T09:46:11.859Z,22.26
2022-08-31T09:49:31.215Z,22.09
2022-08-31T09:52:58.308Z,22.16
2022-08-31T09:56:21.072Z,21.90
2022-08-31T09:59:47.245Z,21.83
2022-08-31T10:03:08.561Z,21.86
2022-08-31T10:06:44.146Z,21.71
2022-08-31T10:10:02.942Z,21.69
2022-08-31T10:13:22.090Z,21.54
2022-08-31T10:16:38.891Z,21.48
2022-08-31T10:20:03.168Z,21.38
2022-08-31T10:23:22.283Z,21.18
2022-08-31T10:29:57.081Z,21.16
2022-08-31T10:33:19.416Z,20.97
2022-08-31T10:36:33.994Z,20.85
2022-08-31T10:39:50.239Z,20.79
2022-08-31T10:43:11.090Z,20.66
2022-08-31T10:46:24.050Z,20.74
2022-08-31T10:49:39.202Z,20.59
2022-08-31T10:53:02.510Z,20.83
2022-08-31T10:56:19.031Z,20.91
2022-08-31T10:59:37.321Z,20.97
2022-08-31T11:02:57.706Z,21.14
2022-08-31T11:06:15.847Z,21.17
2022-08-31T11:09:33.565Z,21.35
2022-08-31T11:12:52.229Z,21.69
2022-08-31T11:16:19.981Z,22.10
2022-08-31T11:19:44.899Z,22.29
2022-08-31T11:23:29.981Z,22.23
2022-08-31T11:26:57.079Z,22.38
2022-08-31T11:30:16.406Z,22.47
2022-08-31T11:33:32.597Z,22.54
2022-08-31T11:36:55.526Z,22.91
2022-08-31T11:40:07.918Z,23.15
2022-08-31T11:43:38.381Z,22.97
2022-08-31T11:47:12.941Z,23.01
2022-08-31T11:51:07.252Z,22.76
2022-08-31T11:54:32.549Z,23.27
2022-08-31T11:58:39.217Z,23.13
2022-08-31T12:01:52.086Z,23.16
2022-08-31T12:05:09.679Z,22.90
2022-08-31T12:08:21.844Z,22.48
2022-08-31T12:11:44.541Z,22.56
2022-08-31T12:15:02.418Z,22.23
2022-08-31T12:18:29.126Z,22.38
2022-08-31T12:22:05.140Z,22.47
2022-08-31T12:25:25.593Z,22.19
2022-08-31T12:28:44.163Z,22.09
2022-08-31T12:32:23.696Z,22.00
2022-08-31T12:35:39.325Z,22.26
2022-08-31T12:38:51.836Z,22.21
2022-08-31T12:42:08.286Z,22.14
2022-08-31T12:45:21.277Z,22.08
2022-08-31T12:49:15.974Z,22.00
2022-08-31T12:52:49.463Z,22.10
2022-08-31T12:56:06.269Z,22.04
2022-08-31T12:59:51.382Z,22.16
2022-08-31T13:02:49.810Z,22.27
2022-08-31T13:13:12.175Z,22.16
2022-08-31T13:16:25.552Z,22.08
2022-08-31T13:19:42.662Z,22.02
2022-08-31T13:23:03.825Z,21.92
2022-08-31T13:26:25.132Z,22.11
2022-08-31T13:29:39.349Z,22.11
2022-08-31T13:32:54.884Z,22.23
2022-08-31T13:36:11.862Z,22.42
2022-08-31T13:39:25.384Z,22.42
2022-08-31T13:42:43.039Z,22.35
2022-08-31T13:46:02.394Z,22.59
2022-08-31T13:49:30.987Z,22.71
2022-08-31T13:52:44.214Z,22.88
2022-08-31T13:55:55.946Z,22.85
2022-08-31T14:02:44.977Z,22.43
2022-08-31T14:06:03.544Z,22.26
2022-08-31T14:09:23.734Z,22.13
2022-08-31T14:12:49.473Z,22.06
2022-08-31T14:16:04.206Z,21.99
2022-08-31T14:19:17.985Z,22.06
2022-08-31T14:22:36.737Z,21.91
2022-08-31T14:25:50.938Z,21.97
2022-08-31T14:29:09.096Z,21.74
2022-08-31T14:32:22.733Z,21.59
2022-08-31T14:35:34.891Z,21.54
2022-08-31T14:38:48.331Z,21.40
2022-08-31T14:42:02.858Z,21.35
2022-08-31T14:45:19.353Z,21.31
2022-08-31T14:48:31.568Z,21.29
2022-08-31T14:51:44.212Z,21.26
2022-08-31T14:54:57.918Z,21.25
2022-08-31T14:58:13.537Z,21.24
2022-08-31T15:01:26.246Z,21.24
2022-08-31T15:04:42.835Z,21.27
2022-08-31T15:07:53.113Z,21.27
2022-08-31T15:11:06.209Z,21.19
2022-08-31T15:14:18.721Z,21.26
2022-08-31T15:17:33.222Z,21.37
2022-08-31T15:20:45.178Z,21.28
2022-08-31T15:23:58.633Z,21.25
2022-08-31T15:27:13.578Z,21.17
2022-08-31T15:30:26.675Z,21.11
2022-08-31T15:33:41.433Z,21.00
2022-08-31T15:36:56.152Z,20.95
2022-08-31T15:40:11.627Z,20.89
2022-08-31T15:43:25.609Z,20.79
2022-08-31T15:46:51.824Z,20.73
2022-08-31T15:50:05.658Z,20.66
2022-08-31T15:53:18.930Z,20.56
2022-08-31T15:56:31.988Z,20.41
2022-08-31T15:59:46.018Z,20.38
2022-08-31T16:03:01.524Z,20.38
2022-08-31T16:06:15.030Z,20.38
2022-08-31T16:09:27.957Z,20.34
2022-08-31T16:12:40.182Z,20.28
2022-08-31T16:15:57.080Z,20.17
2022-08-31T16:19:08.276Z,20.16
2022-08-31T16:22:22.488Z,20.18
2022-08-31T16:25:47.370Z,20.13
2022-08-31T16:28:51.502Z,20.08
2022-08-31T16:32:03.945Z,20.04
2022-08-31T16:35:17.444Z,19.99
2022-08-31T16:38:31.585Z,19.97
2022-08-31T16:41:45.174Z,19.93
2022-08-31T16:45:01.802Z,19.93
2022-08-31T16:48:29.364Z,19.88
2022-08-31T16:51:40.548Z,19.89
2022-08-31T16:54:57.020Z,19.76
2022-08-31T16:58:09.043Z,19.76
2022-08-31T17:01:25.595Z,19.68
2022-08-31T17:04:54.199Z,19.69
2022-08-31T17:07:52.192Z,19.68
2022-08-31T17:11:04.902Z,19.58
2022-08-31T17:14:18.729Z,19.56
2022-08-31T17:17:33.141Z,19.46
2022-08-31T17:20:45.410Z,19.39
2022-08-31T17:23:58.754Z,19.28
2022-08-31T17:27:13.711Z,19.29
2022-08-31T17:30:25.923Z,19.23
2022-08-31T17:33:37.655Z,19.06
2022-08-31T17:36:51.961Z,19.07
2022-08-31T17:40:04.583Z,18.94
2022-08-31T17:43:17.701Z,18.91
2022-08-31T17:46:30.319Z,18.85
2022-08-31T17:49:46.579Z,18.80
2022-08-31T17:52:58.975Z,18.70
2022-08-31T17:56:12.998Z,18.63
2022-08-31T17:59:28.364Z,18.56
2022-08-31T18:02:39.997Z,18.42
2022-08-31T18:05:52.620Z,18.36
2022-08-31T18:09:05.438Z,18.29
2022-08-31T18:12:20.496Z,18.33
2022-08-31T18:15:32.213Z,18.31
2022-08-31T18:18:45.609Z,18.20
2022-08-31T18:21:57.826Z,18.19
2022-08-31T18:25:10.648Z,18.14
2022-08-31T18:28:22.648Z,18.09
2022-08-31T18:31:37.731Z,18.04
2022-08-31T18:34:54.087Z,17.95
2022-08-31T18:38:06.617Z,17.82
2022-08-31T18:41:33.309Z,17.73
2022-08-31T18:45:00.132Z,17.65
2022-08-31T18:48:24.715Z,17.59
2022-08-31T18:51:26.095Z,17.48
2022-08-31T18:54:39.113Z,17.47
2022-08-31T18:57:50.824Z,17.42
2022-08-31T19:01:04.857Z,17.32
2022-08-31T19:04:21.763Z,17.32
2022-08-31T19:07:31.780Z,17.27
2022-08-31T19:10:47.002Z,17.14
2022-08-31T19:14:01.464Z,17.05
2022-08-31T19:17:15.349Z,17.03
2022-08-31T19:20:29.318Z,17.03
2022-08-31T19:23:41.275Z,17.03
2022-08-31T19:26:56.678Z,17.00
2022-08-31T19:30:09.802Z,16.87
2022-08-31T19:33:23.736Z,16.83
2022-08-31T19:36:40.462Z,16.80
2022-08-31T19:39:50.795Z,16.67
2022-08-31T19:43:44.851Z,16.65
2022-08-31T19:46:23.214Z,16.62
2022-08-31T19:49:36.004Z,16.57
2022-08-31T19:52:49.108Z,16.51
2022-08-31T19:56:01.637Z,16.49
2022-08-31T19:59:17.666Z,16.53
2022-08-31T20:02:29.850Z,16.58
2022-08-31T20:05:44.748Z,16.61
2022-08-31T20:08:58.147Z,16.67
2022-08-31T20:12:11.956Z,16.70
2022-08-31T20:15:24.059Z,16.65
2022-08-31T20:18:37.311Z,16.70
2022-08-31T20:21:51.724Z,16.64
2022-08-31T20:25:03.932Z,16.64
2022-08-31T20:28:16.075Z,16.61
2022-08-31T20:31:27.997Z,16.57
2022-08-31T20:34:39.730Z,16.59
2022-08-31T20:37:51.259Z,16.50
2022-08-31T20:41:05.661Z,16.41
2022-08-31T20:44:20.522Z,16.37
2022-08-31T20:47:47.079Z,16.40
2022-08-31T20:50:59.707Z,16.34
2022-08-31T20:54:11.799Z,16.28
2022-08-31T20:57:23.722Z,16.31
2022-08-31T21:00:37.496Z,16.32
2022-08-31T21:03:49.332Z,16.29
2022-08-31T21:07:02.655Z,16.33
2022-08-31T21:10:21.223Z,16.34
2022-08-31T21:13:30.786Z,16.25
2022-08-31T21:16:43.154Z,16.08
2022-08-31T21:19:56.982Z,16.03
2022-08-31T21:23:10.890Z,16.05
2022-08-31T21:26:26.778Z,16.04
2022-08-31T21:29:38.950Z,16.00
2022-08-31T21:32:50.619Z,15.93
2022-08-31T21:36:15.066Z,15.96
2022-08-31T21:39:29.742Z,16.03
2022-08-31T21:42:41.524Z,16.00
2022-08-31T21:45:54.974Z,15.92
2022-08-31T21:49:08.777Z,15.91
2022-08-31T21:52:21.534Z,15.95
2022-08-31T21:55:33.074Z,16.00
2022-08-31T21:58:45.225Z,15.99
2022-08-31T22:01:59.322Z,15.87
2022-08-31T22:05:12.531Z,15.94
2022-08-31T22:08:26.104Z,16.00
2022-08-31T22:11:43.938Z,15.99
2022-08-31T22:14:55.522Z,16.02
2022-08-31T22:18:46.071Z,15.93
2022-08-31T22:21:26.956Z,15.97
2022-08-31T22:24:40.165Z,16.01
2022-08-31T22:27:51.952Z,15.86
2022-08-31T22:31:07.465Z,15.91
2022-08-31T22:34:20.301Z,15.75
2022-08-31T22:37:33.876Z,15.79
2022-08-31T22:40:48.103Z,15.82
2022-08-31T22:47:00.643Z,15.74
2022-08-31T22:50:14.799Z,15.73
2022-08-31T22:53:26.403Z,15.71
2022-08-31T22:56:41.865Z,15.68
2022-08-31T22:59:54.716Z,15.63
2022-08-31T23:03:06.743Z,15.55
2022-08-31T23:06:20.433Z,15.41
2022-08-31T23:09:34.292Z,15.38
2022-08-31T23:12:45.974Z,15.37
2022-08-31T23:15:59.619Z,15.27
2022-08-31T23:19:16.599Z,15.18
2022-08-31T23:22:29.665Z,15.15
2022-08-31T23:25:43.074Z,15.10
2022-08-31T23:28:54.679Z,14.99
2022-08-31T23:32:06.349Z,15.02
2022-08-31T23:35:19.735Z,15.00
2022-08-31T23:38:31.580Z,14.84
2022-08-31T23:41:43.764Z,14.67
2022-08-31T23:44:56.088Z,14.55
2022-08-31T23:48:08.459Z,14.55
2022-08-31T23:51:20.634Z,14.58
2022-08-31T23:54:32.174Z,14.68
2022-08-31T23:57:45.514Z,14.56
